Griddlers

Vá diretamente à ID do puzzle

Selecione o puzzle por:
Resolvidos Question organizar por
Mostrar mais filtros >>>
puzzles por página
Página nº de 1198
Resultado: 23943 de 23939
ID Descrição Autor Data Tamanho Pontos Popularidade Tempo Médio Resolvidos
38313 Happy New Year! elimaor 23-09-2006 50x50x8 f-2 143.540 0:42:11
37818 Cheers dreamtheater 12-09-2006 50x48x3 f-4 10.627.455 3:07:48
37989 Contentment Dreamelina 16-09-2006 35x35x8 f-4 19.691 0:15:52
37990 Contentment Dreamelina 16-09-2006 35x35x8 f-4 42.301 0:41:01
39314 Three Got Out of Their Cage elimaor 26-10-2006 50x50x4 f-4 200.258 1:25:58
39317 Reksio anm 26-10-2006 35x30x4 f-4 49.999 0:06:30
39318 Reksio anm 26-10-2006 35x30x4 f-4 15.671 0:10:24
38794 Magic Show Girl elimaor 11-10-2006 40x35x8 f-4 47.458 0:29:19
38795 Magic Show Girl elimaor 11-10-2006 40x35x8 f-4 45.351 0:19:26
38800 Autumn Impressions GICaesar 11-10-2006 35x45x4 t-2 170.848 0:44:30
38907 Orange Iris GICaesar 15-10-2006 35x40x5 t-4 42.650 0:41:30
38909 Orange Iris GICaesar 15-10-2006 35x40x5 t-4 50.086 0:18:19
38951 Car solior 16-10-2006 30x32x5 f-2 3.195 0:06:00
38997 Young Boy Andreasss 17-10-2006 50x50x3 f-4 17.778.889 3:36:13
39007 Dance hibrahimozer 17-10-2006 50x50x3 f-4 4.270 0:14:28
37141 Hotel jos99 20-08-2006 30x50x2 f-4 5.614 0:02:56
37165 Darth Maul robbed 21-08-2006 45x35x4 t-2 10.713 0:27:31
37201 Schroeder ginny 22-08-2006 50x50x6 f-2 375.012 0:45:06
37230 Looking Through the Window jazzinka 23-08-2006 50x50x3 f-4 2.263.759 0:42:03
37235 San Francisco Bay noname219 23-08-2006 50x35x6 f-4 4.932 0:13:02
puzzles por página
Página nº de 1198
Resultado: 23943 de 23939